Time;durP1;ratioP1;P1;durP2;ratioP2;P2;SDS_P1;SDS_P2;PMS_P1;PMS_P2;Temp;Humidity;BMP_temperature;BMP_pressure;BME280_temperature;BME280_humidity;BME280_pressure;Samples;Min_cycle;Max_cycle;Signal;HPM_P1;HPM_P2
2021/10/30 00:02:13;;;;;;;54.10;29.13;;;;;;;9.50;67.95;101815.91;127277;1100;101307;-78
2021/10/30 00:04:41;;;;;;;56.20;29.67;;;;;;;9.47;67.48;101802.61;127340;1101;101534;-79
2021/10/30 00:07:10;;;;;;;53.50;28.17;;;;;;;9.42;67.36;101818.05;127281;1101;101783;-79
2021/10/30 00:09:38;;;;;;;54.00;28.07;;;;;;;9.37;67.69;101814.26;127203;1101;101508;-79
2021/10/30 00:12:07;;;;;;;61.63;27.80;;;;;;;9.34;67.48;101801.86;126355;1100;101914;-79
2021/10/30 00:14:35;;;;;;;52.33;27.63;;;;;;;9.33;67.63;101810.55;126275;1102;101604;-79
2021/10/30 00:17:03;;;;;;;53.47;27.43;;;;;;;9.30;68.17;101807.75;127297;1100;101614;-79
2021/10/30 00:19:31;;;;;;;52.37;27.93;;;;;;;9.28;68.33;101806.72;127227;1101;101360;-79
2021/10/30 00:21:59;;;;;;;56.57;27.23;;;;;;;9.26;68.22;101799.60;127360;1101;101562;-79
2021/10/30 00:24:27;;;;;;;59.63;27.97;;;;;;;9.25;67.73;101803.02;126312;1102;101998;-79
2021/10/30 00:26:54;;;;;;;56.90;30.03;;;;;;;9.23;68.37;101799.41;127318;1101;101556;-79
2021/10/30 00:29:23;;;;;;;57.83;29.70;;;;;;;9.21;67.66;101804.55;127342;1101;101575;-79
2021/10/30 00:31:51;;;;;;;60.00;30.37;;;;;;;9.21;68.13;101812.41;127345;1102;101579;-79
2021/10/30 00:34:19;;;;;;;57.77;30.33;;;;;;;9.17;67.77;101807.78;127314;1101;102120;-79
2021/10/30 00:36:47;;;;;;;55.63;28.63;;;;;;;9.10;68.47;101808.20;127425;1101;103207;-79
2021/10/30 00:39:15;;;;;;;67.33;30.40;;;;;;;8.99;68.48;101808.45;127328;1101;101776;-79
2021/10/30 00:41:47;;;;;;;61.50;31.27;;;;;;;8.92;68.59;101811.47;127210;1101;102089;-79
2021/10/30 00:44:15;;;;;;;64.43;31.70;;;;;;;8.92;68.30;101818.44;127413;1101;101062;-79
2021/10/30 00:46:45;;;;;;;60.10;29.43;;;;;;;8.91;68.31;101809.69;126355;1102;101692;-79
2021/10/30 00:49:14;;;;;;;56.83;28.43;;;;;;;8.89;67.87;101811.28;127378;1101;102043;-79
2021/10/30 00:51:44;;;;;;;60.77;28.67;;;;;;;8.86;67.93;101813.70;127151;1101;101491;-79
2021/10/30 00:54:14;;;;;;;57.97;29.07;;;;;;;8.85;68.33;101817.15;127389;1101;101538;-79
2021/10/30 00:56:44;;;;;;;55.03;28.33;;;;;;;8.81;68.71;101815.12;127314;1101;101568;-79
2021/10/30 00:59:16;;;;;;;60.13;29.33;;;;;;;8.80;68.37;101810.69;127414;1100;101527;-79
2021/10/30 01:01:45;;;;;;;56.33;28.50;;;;;;;8.78;68.53;101820.17;127165;1101;102740;-78
2021/10/30 01:04:14;;;;;;;58.90;30.47;;;;;;;8.75;68.81;101819.97;127341;1101;101867;-78
2021/10/30 01:06:45;;;;;;;59.27;30.20;;;;;;;8.70;68.38;101816.16;127339;1101;101539;-79
2021/10/30 01:09:13;;;;;;;61.53;31.47;;;;;;;8.64;68.23;101814.94;127332;1101;101509;-79
2021/10/30 01:11:42;;;;;;;62.83;32.37;;;;;;;8.63;68.64;101815.77;127259;1101;101989;-78
2021/10/30 01:14:11;;;;;;;66.40;32.90;;;;;;;8.60;68.60;101819.87;127402;1101;103059;-79
2021/10/30 01:16:38;;;;;;;62.20;31.97;;;;;;;8.59;68.69;101818.09;127374;1100;101634;-79
2021/10/30 01:19:06;;;;;;;59.90;31.13;;;;;;;8.55;69.00;101818.68;127356;1101;101629;-79
2021/10/30 01:21:37;;;;;;;62.77;31.13;;;;;;;8.54;68.59;101820.41;126269;1102;101943;-79
2021/10/30 01:24:07;;;;;;;62.07;31.00;;;;;;;8.51;68.40;101819.28;127373;1101;101617;-78
2021/10/30 01:26:36;;;;;;;61.10;30.33;;;;;;;8.50;68.43;101823.61;127375;1101;102069;-79
2021/10/30 01:29:05;;;;;;;62.07;30.93;;;;;;;8.51;68.54;101820.20;127268;1101;101906;-79
2021/10/30 01:31:33;;;;;;;59.20;30.27;;;;;;;8.49;68.50;101816.56;127168;1101;101581;-79
2021/10/30 01:34:05;;;;;;;58.50;29.83;;;;;;;8.51;69.24;101828.05;127396;1101;101516;-79
2021/10/30 01:36:35;;;;;;;60.13;29.20;;;;;;;8.52;68.80;101829.84;127430;1101;101029;-79
2021/10/30 01:39:04;;;;;;;61.23;29.67;;;;;;;8.55;68.79;101823.91;127365;1101;101901;-79
2021/10/30 01:41:33;;;;;;;57.07;30.83;;;;;;;8.55;68.92;101827.42;127204;1101;101533;-79
2021/10/30 01:44:02;;;;;;;60.47;30.83;;;;;;;8.50;68.56;101826.23;127336;1101;101069;-79
2021/10/30 01:46:32;;;;;;;58.47;31.30;;;;;;;8.42;69.25;101833.54;127337;1101;101503;-79
2021/10/30 01:49:00;;;;;;;62.97;32.43;;;;;;;8.39;68.96;101828.11;127377;1101;101503;-79
2021/10/30 01:51:28;;;;;;;63.70;32.77;;;;;;;8.36;69.28;101827.91;126264;1102;102142;-79
2021/10/30 01:53:58;;;;;;;60.67;33.30;;;;;;;8.33;68.79;101829.42;127363;1101;101843;-79
2021/10/30 01:56:26;;;;;;;66.97;32.43;;;;;;;8.29;68.98;101828.33;126342;1102;101122;-78
2021/10/30 01:58:54;;;;;;;60.97;30.73;;;;;;;8.26;69.36;101834.25;127306;1101;101504;-79
2021/10/30 02:01:23;;;;;;;57.53;28.70;;;;;;;8.22;69.30;101837.45;126271;1102;102406;-79
2021/10/30 02:03:51;;;;;;;56.80;28.77;;;;;;;8.18;68.93;101837.14;127297;1101;103073;-79
2021/10/30 02:06:22;;;;;;;60.57;29.60;;;;;;;8.16;69.20;101828.30;127303;1101;101752;-79
2021/10/30 02:08:50;;;;;;;64.97;30.40;;;;;;;8.14;68.78;101822.97;127307;1101;101515;-79
2021/10/30 02:11:18;;;;;;;64.67;31.57;;;;;;;8.09;68.85;101832.23;126306;1102;101351;-79
2021/10/30 02:13:46;;;;;;;64.20;31.60;;;;;;;8.04;69.26;101834.53;127350;1100;101508;-79
2021/10/30 02:16:14;;;;;;;62.97;30.80;;;;;;;8.03;69.22;101835.32;126327;1102;102077;-79
2021/10/30 02:18:43;;;;;;;61.50;31.37;;;;;;;7.99;68.86;101832.39;127324;1101;101770;-79
2021/10/30 02:21:14;;;;;;;59.73;31.97;;;;;;;7.96;69.54;101832.19;127378;1101;102401;-79
2021/10/30 02:23:42;;;;;;;60.43;31.40;;;;;;;7.92;69.35;101834.59;127175;1102;101284;-79
2021/10/30 02:26:11;;;;;;;66.47;31.97;;;;;;;7.91;69.42;101832.77;127341;1101;101060;-78
2021/10/30 02:28:39;;;;;;;58.07;31.03;;;;;;;7.92;69.07;101837.20;127332;1101;103080;-79
2021/10/30 02:31:07;;;;;;;61.93;31.93;;;;;;;7.94;69.13;101841.64;126303;1102;101806;-78
2021/10/30 02:33:35;;;;;;;52.57;29.37;;;;;;;7.92;69.07;101838.92;127206;1101;101831;-79
2021/10/30 02:36:04;;;;;;;56.33;29.20;;;;;;;7.90;69.13;101841.44;127325;1101;101313;-79
2021/10/30 02:38:32;;;;;;;62.70;29.50;;;;;;;7.92;69.15;101844.16;127359;1101;101497;-79
2021/10/30 02:41:00;;;;;;;55.77;28.20;;;;;;;7.92;69.61;101836.31;127341;1101;101920;-79
2021/10/30 02:43:28;;;;;;;58.80;29.07;;;;;;;7.95;69.85;101839.14;127201;1101;101833;-79
2021/10/30 02:45:56;;;;;;;52.23;27.80;;;;;;;7.97;69.73;101840.13;127360;1102;101084;-79
2021/10/30 02:48:24;;;;;;;57.57;28.53;;;;;;;8.00;69.25;101839.45;127367;1100;101552;-79
2021/10/30 02:50:53;;;;;;;56.30;29.20;;;;;;;8.01;69.40;101841.23;127410;1101;101662;-79
2021/10/30 02:53:21;;;;;;;61.20;29.97;;;;;;;8.01;69.28;101852.62;127227;1101;102883;-79
2021/10/30 02:55:49;;;;;;;59.03;29.90;;;;;;;7.99;69.83;101848.97;127292;1101;101849;-79
2021/10/30 02:58:17;;;;;;;53.37;29.93;;;;;;;7.96;69.29;101846.16;126363;1102;101097;-79
2021/10/30 03:00:45;;;;;;;58.83;30.57;;;;;;;7.95;69.45;101853.89;127367;1101;101583;-78
2021/10/30 03:03:13;;;;;;;58.40;29.43;;;;;;;7.92;69.56;101852.00;127235;1101;101558;-78
2021/10/30 03:05:41;;;;;;;54.37;30.53;;;;;;;7.87;69.39;101849.07;127373;1101;102843;-79
2021/10/30 03:08:09;;;;;;;55.60;28.93;;;;;;;7.85;69.47;101848.07;126302;1101;101800;-78
2021/10/30 03:10:37;;;;;;;61.73;30.60;;;;;;;7.83;69.82;101847.03;127325;1101;101606;-78
2021/10/30 03:13:05;;;;;;;54.37;30.10;;;;;;;7.80;69.48;101852.05;126320;1101;102015;-79
2021/10/30 03:15:33;;;;;;;53.63;28.60;;;;;;;7.79;69.45;101850.27;126357;1102;101615;-79
2021/10/30 03:18:00;;;;;;;55.33;29.23;;;;;;;7.77;70.09;101851.84;127339;1100;103021;-78
2021/10/30 03:20:29;;;;;;;55.87;28.67;;;;;;;7.73;69.62;101849.84;127265;1101;101301;-79
2021/10/30 03:22:57;;;;;;;57.70;29.07;;;;;;;7.67;69.66;101852.92;127303;1101;101527;-78
2021/10/30 03:25:25;;;;;;;57.17;27.90;;;;;;;7.65;69.38;101856.22;127318;1101;101593;-79
2021/10/30 03:27:53;;;;;;;58.97;28.80;;;;;;;7.65;69.59;101864.05;127374;1101;101550;-79
2021/10/30 03:30:21;;;;;;;57.60;28.37;;;;;;;7.62;69.89;101858.62;127358;1100;102998;-79
2021/10/30 03:32:49;;;;;;;61.83;27.97;;;;;;;7.60;69.59;101861.13;127289;1101;101785;-79
2021/10/30 03:35:17;;;;;;;54.70;28.50;;;;;;;7.60;69.93;101863.73;127312;1100;101854;-79
2021/10/30 03:37:46;;;;;;;49.37;26.60;;;;;;;7.61;69.67;101868.17;127395;1101;101525;-78
2021/10/30 03:40:14;;;;;;;51.47;26.83;;;;;;;7.62;69.88;101862.16;127389;1101;101550;-79
2021/10/30 03:42:42;;;;;;;48.33;26.97;;;;;;;7.66;69.83;101865.88;127368;1101;101956;-79
2021/10/30 03:45:11;;;;;;;53.50;27.57;;;;;;;7.67;70.27;101859.87;127242;1101;101646;-78
2021/10/30 03:47:38;;;;;;;51.57;27.10;;;;;;;7.70;69.84;101857.47;127367;1101;101573;-79
2021/10/30 03:50:07;;;;;;;52.83;26.03;;;;;;;7.67;69.86;101857.25;127375;1101;101076;-79
2021/10/30 03:52:35;;;;;;;50.47;27.07;;;;;;;7.67;69.90;101858.15;127377;1101;101504;-79
2021/10/30 03:55:04;;;;;;;45.67;25.57;;;;;;;7.67;70.32;101854.64;127193;1101;102876;-79
2021/10/30 03:57:32;;;;;;;53.17;26.50;;;;;;;7.69;70.62;101863.48;126294;1102;101594;-78
2021/10/30 04:00:00;;;;;;;51.43;25.83;;;;;;;7.70;70.65;101860.08;127347;1101;101559;-79
2021/10/30 04:02:28;;;;;;;46.67;25.43;;;;;;;7.71;70.24;101857.57;127326;1100;102367;-78
2021/10/30 04:04:56;;;;;;;45.90;26.00;;;;;;;7.74;70.41;101854.24;127206;1101;101556;-78
2021/10/30 04:07:24;;;;;;;45.60;24.53;;;;;;;7.73;70.63;101860.29;127398;1101;101987;-79
2021/10/30 04:09:52;;;;;;;50.93;26.67;;;;;;;7.75;70.57;101863.91;127355;1101;101742;-79
2021/10/30 04:12:20;;;;;;;51.20;25.43;;;;;;;7.74;70.54;101862.08;126312;1102;101622;-78
2021/10/30 04:14:48;;;;;;;47.47;25.90;;;;;;;7.71;70.02;101856.64;127182;1101;101533;-78
2021/10/30 04:17:16;;;;;;;51.20;26.50;;;;;;;7.61;70.11;101870.78;127368;1101;101881;-79
2021/10/30 04:19:44;;;;;;;49.83;27.53;;;;;;;7.47;70.19;101867.20;127386;1101;103152;-78
2021/10/30 04:22:12;;;;;;;50.63;26.63;;;;;;;7.39;70.05;101871.00;127302;1101;101655;-79
2021/10/30 04:24:40;;;;;;;50.90;27.73;;;;;;;7.32;70.17;101866.12;127165;1101;101673;-78
2021/10/30 04:27:08;;;;;;;50.07;26.93;;;;;;;7.28;70.23;101877.17;127321;1101;101540;-78
2021/10/30 04:29:36;;;;;;;51.27;27.17;;;;;;;7.21;70.40;101870.59;127325;1101;101623;-79
2021/10/30 04:32:06;;;;;;;49.57;26.77;;;;;;;7.17;70.00;101876.41;127332;1101;101907;-78
2021/10/30 04:34:41;;;;;;;56.20;27.33;;;;;;;7.15;70.43;101878.91;127197;1101;101881;-79
2021/10/30 04:37:15;;;;;;;52.40;27.37;;;;;;;7.14;69.90;101882.30;127387;1101;101591;-78
2021/10/30 04:39:44;;;;;;;51.63;27.07;;;;;;;7.13;70.42;101880.48;127275;1101;102041;-78
2021/10/30 04:42:13;;;;;;;51.33;28.50;;;;;;;7.12;70.41;101878.69;126354;1102;101621;-79
2021/10/30 04:44:41;;;;;;;58.13;29.80;;;;;;;7.11;70.25;101878.58;126325;1102;101992;-79
2021/10/30 04:47:09;;;;;;;60.43;28.90;;;;;;;7.09;70.20;101878.47;127320;1100;101534;-78
2021/10/30 04:49:38;;;;;;;53.87;28.93;;;;;;;7.09;70.49;101883.69;127311;1101;101635;-78
2021/10/30 04:52:08;;;;;;;59.63;30.43;;;;;;;7.11;70.39;101882.08;126368;1102;101704;-78
2021/10/30 04:54:36;;;;;;;57.77;28.67;;;;;;;7.12;70.16;101883.91;127294;1101;101525;-79
2021/10/30 04:57:05;;;;;;;50.87;26.93;;;;;;;7.13;70.66;101877.87;127352;1100;101925;-78
2021/10/30 04:59:33;;;;;;;55.10;28.63;;;;;;;7.17;70.35;101879.91;127307;1101;101625;-79
2021/10/30 05:02:01;;;;;;;57.87;28.17;;;;;;;7.22;70.52;101876.73;127243;1101;101577;-79
2021/10/30 05:04:29;;;;;;;53.97;27.30;;;;;;;7.28;70.65;101885.01;127387;1101;101597;-78
2021/10/30 05:06:59;;;;;;;52.50;26.70;;;;;;;7.34;70.77;101886.34;126343;1102;101589;-78
2021/10/30 05:09:27;;;;;;;51.13;26.57;;;;;;;7.43;71.21;101891.28;127309;1101;102902;-79
2021/10/30 05:11:56;;;;;;;52.13;25.00;;;;;;;7.51;70.98;101900.59;127301;1101;101502;-79
2021/10/30 05:14:27;;;;;;;58.70;25.97;;;;;;;7.57;70.67;101894.87;127307;1101;101677;-78
2021/10/30 05:16:55;;;;;;;53.23;26.63;;;;;;;7.64;70.54;101901.45;127193;1101;101597;-78
2021/10/30 05:19:23;;;;;;;58.63;26.93;;;;;;;7.70;71.46;101894.05;127348;1102;101517;-79
2021/10/30 05:21:51;;;;;;;58.07;27.07;;;;;;;7.75;71.12;101905.71;127390;1101;102938;-78
2021/10/30 05:24:19;;;;;;;62.53;29.40;;;;;;;7.80;71.56;101900.80;127243;1101;101537;-79
2021/10/30 05:26:47;;;;;;;64.23;27.97;;;;;;;7.84;71.20;101908.97;126297;1105;101443;-79
2021/10/30 05:29:15;;;;;;;73.97;29.23;;;;;;;7.86;71.52;101915.20;126291;1105;101886;-79
2021/10/30 05:31:43;;;;;;;50.90;24.50;;;;;;;7.88;72.03;101908.39;126328;1105;101818;-78
2021/10/30 05:34:11;;;;;;;52.47;24.23;;;;;;;7.88;71.66;101907.46;126346;1105;102111;-78
2021/10/30 05:37:00;;;;;;;55.00;26.27;;;;;;;7.90;71.86;101912.00;126288;1105;101797;-78
2021/10/30 05:39:43;;;;;;;53.00;26.00;;;;;;;7.96;71.59;101916.73;126324;1105;101932;-79
2021/10/30 05:42:13;;;;;;;53.23;24.63;;;;;;;8.03;71.49;101907.63;126300;1105;101600;-78
2021/10/30 05:44:41;;;;;;;49.63;24.23;;;;;;;8.12;72.19;101904.70;126548;1102;101601;-79
2021/10/30 05:47:12;;;;;;;53.43;25.73;;;;;;;8.15;72.34;101905.84;127246;1102;102427;-79
2021/10/30 05:49:44;;;;;;;47.07;23.70;;;;;;;8.15;71.95;101902.30;127277;1101;101276;-79
2021/10/30 05:52:14;;;;;;;47.67;23.13;;;;;;;8.15;71.77;101905.84;126335;1105;101593;-79
2021/10/30 05:54:43;;;;;;;64.80;24.70;;;;;;;8.13;71.81;101912.66;126315;1102;101552;-78
2021/10/30 05:57:13;;;;;;;57.77;24.53;;;;;;;8.11;72.64;101911.66;127193;1101;101521;-79
2021/10/30 05:59:42;;;;;;;59.63;27.37;;;;;;;8.06;73.28;101918.29;127331;1101;103091;-79
2021/10/30 06:02:12;;;;;;;49.90;24.17;;;;;;;8.04;72.55;101906.80;126254;1102;101607;-79
2021/10/30 06:04:42;;;;;;;56.50;24.23;;;;;;;8.03;72.41;101903.29;127394;1101;101632;-79
2021/10/30 06:07:15;;;;;;;59.40;25.40;;;;;;;8.11;72.20;101909.05;126319;1102;102185;-78
2021/10/30 06:09:47;;;;;;;58.05;27.50;;;;;;;8.14;72.89;101909.25;126414;1102;101638;-79
2021/10/30 06:12:20;;;;;;;56.33;25.67;;;;;;;8.19;72.56;101914.80;127398;1101;102368;-79
2021/10/30 06:14:48;;;;;;;56.30;26.07;;;;;;;8.24;73.08;101913.39;127357;1101;101530;-78
2021/10/30 06:17:16;;;;;;;56.60;23.60;;;;;;;8.24;73.22;101914.31;126323;1102;102256;-79
2021/10/30 06:19:44;;;;;;;67.73;26.30;;;;;;;8.27;73.08;101913.59;127336;1101;101189;-78
2021/10/30 06:22:12;;;;;;;57.37;25.80;;;;;;;8.34;72.72;101914.94;127353;1101;101607;-78
2021/10/30 06:24:41;;;;;;;54.30;26.27;;;;;;;8.42;72.84;101913.73;126345;1102;102007;-78
2021/10/30 06:27:09;;;;;;;56.07;26.00;;;;;;;8.47;72.75;101911.46;127193;1101;101559;-78
2021/10/30 06:29:37;;;;;;;60.77;24.57;;;;;;;8.47;73.14;101914.97;127427;1101;101517;-78
2021/10/30 06:32:06;;;;;;;52.27;23.47;;;;;;;8.47;72.71;101916.70;127342;1101;101528;-78
2021/10/30 06:34:34;;;;;;;47.03;22.07;;;;;;;8.50;72.68;101911.67;127384;1101;101517;-78
2021/10/30 06:37:02;;;;;;;51.53;23.03;;;;;;;8.52;72.96;101926.64;127235;1101;101961;-78
2021/10/30 06:39:30;;;;;;;54.30;23.53;;;;;;;8.57;72.57;101924.33;127375;1101;101920;-78
2021/10/30 06:41:58;;;;;;;47.17;21.70;;;;;;;8.58;72.86;101919.20;127352;1101;101539;-79
2021/10/30 06:44:26;;;;;;;47.07;21.80;;;;;;;8.59;72.76;101913.17;127266;1101;101540;-78
2021/10/30 06:46:55;;;;;;;47.73;22.40;;;;;;;8.62;72.61;101922.95;127374;1101;101572;-77
2021/10/30 06:49:24;;;;;;;45.20;22.30;;;;;;;8.63;73.06;101923.05;127300;1101;101994;-78
2021/10/30 06:51:53;;;;;;;46.27;22.63;;;;;;;8.62;73.17;101926.46;127240;1101;101515;-77
2021/10/30 06:54:21;;;;;;;44.40;21.57;;;;;;;8.62;73.03;101918.61;127404;1101;101516;-79
2021/10/30 06:56:49;;;;;;;47.60;21.77;;;;;;;8.60;73.38;101925.47;127368;1101;101337;-78
2021/10/30 06:59:17;;;;;;;47.60;21.40;;;;;;;8.57;72.82;101927.88;126350;1101;101651;-78
2021/10/30 07:01:45;;;;;;;44.40;20.27;;;;;;;8.58;73.09;101919.20;127315;1101;101926;-79
2021/10/30 07:04:13;;;;;;;46.30;23.13;;;;;;;8.62;73.11;101934.31;127288;1101;101298;-78
2021/10/30 07:06:41;;;;;;;39.07;16.80;;;;;;;8.66;73.51;101931.90;127347;1101;101518;-78
2021/10/30 07:09:09;;;;;;;51.37;23.23;;;;;;;8.60;73.44;101935.94;127268;1101;101446;-79
2021/10/30 07:11:37;;;;;;;51.17;23.40;;;;;;;8.58;73.63;101937.52;127379;1101;101516;-80
2021/10/30 07:14:05;;;;;;;47.90;22.83;;;;;;;8.60;73.03;101942.85;127208;1101;102316;-79
2021/10/30 07:16:35;;;;;;;49.63;24.40;;;;;;;8.58;73.19;101937.52;127211;1101;101680;-79
2021/10/30 07:19:06;;;;;;;51.57;24.03;;;;;;;8.64;73.01;101932.69;126801;1102;101675;-78
2021/10/30 07:21:37;;;;;;;48.90;22.83;;;;;;;8.73;73.77;101935.02;126311;1102;101675;-78
2021/10/30 07:24:05;;;;;;;53.37;23.40;;;;;;;8.82;72.89;101939.97;126314;1102;101646;-78
2021/10/30 07:26:33;;;;;;;47.07;21.77;;;;;;;8.88;73.01;101932.52;127126;1101;101839;-79
2021/10/30 07:29:01;;;;;;;54.40;25.03;;;;;;;8.92;73.57;101937.12;127178;1101;101512;-78
2021/10/30 07:31:29;;;;;;;61.77;26.83;;;;;;;8.93;72.96;101936.34;127294;1101;101673;-78
2021/10/30 07:33:57;;;;;;;54.90;26.00;;;;;;;8.95;73.58;101937.33;127366;1101;101555;-79
2021/10/30 07:36:25;;;;;;;54.10;25.60;;;;;;;9.02;72.93;101930.77;127351;1101;101592;-78
2021/10/30 07:38:53;;;;;;;54.97;25.03;;;;;;;9.10;73.31;101926.95;127225;1101;101979;-78
2021/10/30 07:41:21;;;;;;;52.77;25.03;;;;;;;9.12;73.56;101927.06;127350;1101;101957;-78
2021/10/30 07:43:53;;;;;;;55.00;26.43;;;;;;;9.19;73.64;101934.48;127369;1101;101619;-78
2021/10/30 07:46:21;;;;;;;55.00;25.43;;;;;;;9.25;72.87;101934.87;126361;1102;101671;-78
2021/10/30 07:48:51;;;;;;;53.97;26.37;;;;;;;9.32;73.46;101941.44;127282;1101;102107;-78
2021/10/30 07:51:19;;;;;;;54.57;24.77;;;;;;;9.34;72.83;101932.84;126325;1102;102475;-78
2021/10/30 07:53:47;;;;;;;53.97;26.90;;;;;;;9.33;72.96;101936.30;126726;1101;101917;-78
2021/10/30 07:56:16;;;;;;;51.63;22.27;;;;;;;9.28;73.44;101929.83;126645;1101;101692;-79
2021/10/30 07:58:44;;;;;;;51.60;23.40;;;;;;;9.22;72.91;101934.68;126605;1101;101657;-79
2021/10/30 08:01:12;;;;;;;49.60;23.53;;;;;;;9.22;73.56;101937.30;126943;1100;101674;-78
2021/10/30 08:03:40;;;;;;;46.80;22.53;;;;;;;9.30;73.47;101932.55;126862;1101;101955;-78
2021/10/30 08:06:09;;;;;;;49.67;23.10;;;;;;;9.39;72.90;101924.38;126756;1102;101563;-78
2021/10/30 08:08:37;;;;;;;52.50;24.17;;;;;;;9.44;72.91;101931.73;127138;1101;101662;-79
2021/10/30 08:11:05;;;;;;;48.63;23.83;;;;;;;9.46;73.30;101927.48;126351;1102;101641;-78
2021/10/30 08:13:34;;;;;;;53.00;24.87;;;;;;;9.52;73.46;101922.63;127389;1101;101585;-79
2021/10/30 08:16:02;;;;;;;56.90;26.43;;;;;;;9.56;73.61;101928.96;126342;1102;103066;-78
2021/10/30 08:18:30;;;;;;;56.33;24.33;;;;;;;9.63;73.59;101933.79;127319;1100;101527;-79
2021/10/30 08:20:58;;;;;;;54.97;25.60;;;;;;;9.64;73.28;101932.95;127356;1101;101570;-78
2021/10/30 08:23:26;;;;;;;52.40;22.67;;;;;;;9.71;73.00;101929.03;127396;1100;101504;-79
2021/10/30 08:25:54;;;;;;;51.87;23.77;;;;;;;9.70;72.94;101925.47;126304;1105;101381;-79
2021/10/30 08:28:22;;;;;;;52.27;24.40;;;;;;;9.77;73.59;101933.72;126303;1105;102041;-78
2021/10/30 08:30:51;;;;;;;47.70;22.83;;;;;;;9.77;73.51;101933.72;126245;1105;101692;-78
2021/10/30 08:33:20;;;;;;;52.37;24.80;;;;;;;9.82;73.13;101929.69;126297;1105;102148;-78
2021/10/30 08:35:49;;;;;;;54.73;24.63;;;;;;;9.89;73.67;101930.16;126293;1105;101526;-79
2021/10/30 08:38:18;;;;;;;49.87;22.90;;;;;;;9.93;73.54;101933.87;126302;1105;101643;-79
2021/10/30 08:40:46;;;;;;;53.97;24.43;;;;;;;9.96;72.96;101935.78;126288;1103;102090;-80
2021/10/30 08:43:21;;;;;;;56.53;24.50;;;;;;;10.00;73.16;101938.69;126314;1105;101639;-80
2021/10/30 08:45:50;;;;;;;55.23;26.10;;;;;;;10.01;73.08;101939.58;126317;1105;101692;-79
2021/10/30 08:48:20;;;;;;;55.80;25.17;;;;;;;10.04;73.15;101931.91;126294;1105;101764;-79
2021/10/30 08:50:49;;;;;;;52.03;25.13;;;;;;;10.10;73.51;101927.03;126321;1103;101329;-80
2021/10/30 08:53:17;;;;;;;48.83;24.57;;;;;;;10.17;73.51;101929.19;126274;1105;102101;-80
2021/10/30 08:55:45;;;;;;;49.57;23.37;;;;;;;10.21;73.11;101933.81;126254;1105;101905;-79
2021/10/30 08:58:15;;;;;;;50.40;24.57;;;;;;;10.28;73.07;101929.83;126337;1102;101593;-79
2021/10/30 09:00:45;;;;;;;53.77;25.20;;;;;;;10.34;72.96;101918.84;127285;1102;101507;-79
2021/10/30 09:03:15;;;;;;;59.03;27.23;;;;;;;10.40;73.02;101927.08;127369;1101;101530;-79
2021/10/30 09:05:46;;;;;;;53.20;25.53;;;;;;;10.45;73.36;101920.38;127342;1100;101949;-80
2021/10/30 09:08:14;;;;;;;59.93;27.57;;;;;;;10.50;73.52;101920.64;126303;1102;101756;-79
2021/10/30 09:10:44;;;;;;;55.17;25.50;;;;;;;10.57;72.90;101921.09;127247;1101;101493;-79
2021/10/30 09:13:14;;;;;;;48.53;23.37;;;;;;;10.62;73.28;101908.23;127326;1101;101546;-79
2021/10/30 09:15:46;;;;;;;46.40;22.90;;;;;;;10.67;72.86;101911.13;126343;1105;101593;-79
2021/10/30 09:18:28;;;;;;;46.67;21.20;;;;;;;10.73;73.17;101915.00;126273;1104;102000;-79
2021/10/30 09:21:12;;;;;;;55.73;25.10;;;;;;;10.84;73.41;101914.73;126268;1104;101373;-79
2021/10/30 09:23:43;;;;;;;53.83;25.35;;;;;;;10.86;73.38;101913.08;126308;1104;101673;-79
2021/10/30 09:26:27;;;;;;;51.87;25.27;;;;;;;10.87;73.17;101904.40;126309;1105;101709;-79
2021/10/30 09:29:02;;;;;;;52.23;25.40;;;;;;;10.89;73.27;101908.94;126322;1105;101616;-79
2021/10/30 09:31:30;;;;;;;53.13;24.63;;;;;;;10.94;72.78;101903.94;126271;1105;103196;-80
2021/10/30 09:34:01;;;;;;;48.93;24.53;;;;;;;11.00;73.25;101906.92;126283;1104;101671;-78
2021/10/30 09:36:31;;;;;;;48.17;23.47;;;;;;;11.09;73.01;101903.88;126323;1105;101629;-77
2021/10/30 09:39:03;;;;;;;46.47;22.70;;;;;;;11.14;73.52;101905.95;126269;1105;101600;-78
2021/10/30 09:41:33;;;;;;;50.17;23.97;;;;;;;11.25;72.97;101903.00;126260;1105;101683;-79
2021/10/30 09:44:04;;;;;;;53.77;24.07;;;;;;;11.31;73.01;101903.34;126326;1105;103217;-79
2021/10/30 09:46:34;;;;;;;44.67;22.23;;;;;;;11.36;72.73;101906.22;126382;1102;101713;-81
2021/10/30 09:49:13;;;;;;;49.37;24.37;;;;;;;11.39;72.62;101896.80;126364;1101;101628;-79
2021/10/30 09:51:48;;;;;;;51.85;25.62;;;;;;;11.38;72.83;101900.25;127226;1101;101574;-77
2021/10/30 09:54:32;;;;;;;46.17;23.20;;;;;;;11.41;73.05;101903.04;126305;1105;101724;-79
2021/10/30 09:57:01;;;;;;;48.80;25.15;;;;;;;11.41;72.75;101903.04;126306;1105;102051;-77
2021/10/30 09:59:43;;;;;;;45.73;22.20;;;;;;;11.46;72.85;101893.67;126265;1104;101791;-77
2021/10/30 10:02:14;;;;;;;48.83;23.17;;;;;;;11.48;72.59;101889.42;126278;1105;101489;-79
2021/10/30 10:04:49;;;;;;;46.63;23.77;;;;;;;11.55;72.65;101892.39;126318;1105;101643;-80
2021/10/30 10:07:21;;;;;;;44.43;22.70;;;;;;;11.59;72.44;101895.23;126308;1105;101400;-80
2021/10/30 10:09:50;;;;;;;49.23;24.23;;;;;;;11.57;72.28;101895.98;126326;1105;102092;-79
2021/10/30 10:12:19;;;;;;;46.17;23.80;;;;;;;11.57;72.59;101888.10;126278;1102;101958;-79
2021/10/30 10:14:47;;;;;;;46.73;22.80;;;;;;;11.58;72.43;101882.03;127039;1102;101677;-79
2021/10/30 10:17:16;;;;;;;45.07;22.93;;;;;;;11.59;72.40;101878.56;127315;1100;101549;-79
2021/10/30 10:19:44;;;;;;;43.77;22.23;;;;;;;11.64;72.38;101872.74;127379;1102;101832;-80
2021/10/30 10:22:39;;;;;;;46.37;23.70;;;;;;;11.63;72.00;101877.92;126345;1102;102028;-80
2021/10/30 10:25:28;;;;;;;52.60;24.97;;;;;;;11.60;72.18;101876.02;126323;1102;101641;-80
2021/10/30 10:28:17;;;;;;;51.97;25.50;;;;;;;11.66;72.10;101875.45;127401;1101;101606;-78
2021/10/30 10:31:01;;;;;;;56.80;27.00;;;;;;;11.62;72.31;101879.62;127206;1102;101552;-79
2021/10/30 10:33:32;;;;;;;51.60;26.20;;;;;;;11.62;72.18;101878.73;126291;1104;101571;-79
2021/10/30 10:36:25;;;;;;;55.37;27.63;;;;;;;11.61;72.03;101862.06;127083;1101;101933;-78
2021/10/30 10:39:11;;;;;;;54.50;26.37;;;;;;;11.63;71.88;101867.41;126328;1102;101626;-78
2021/10/30 10:41:48;;;;;;;49.87;25.43;;;;;;;11.69;72.06;101867.73;126342;1101;101687;-80
2021/10/30 10:44:37;;;;;;;52.63;25.50;;;;;;;11.83;72.10;101857.94;126347;1102;101606;-79
2021/10/30 10:47:05;;;;;;;47.97;24.47;;;;;;;12.00;72.06;101845.70;126557;1101;101661;-80
2021/10/30 10:49:39;;;;;;;48.23;24.57;;;;;;;12.11;71.88;101847.14;127356;1101;101911;-80
2021/10/30 10:52:14;;;;;;;53.63;26.77;;;;;;;12.22;71.97;101842.42;127237;1101;101291;-80
2021/10/30 10:55:07;;;;;;;47.40;25.50;;;;;;;12.40;71.50;101848.61;127380;1101;101514;-79
2021/10/30 10:57:44;;;;;;;48.53;24.97;;;;;;;12.40;71.50;101839.78;126466;1101;101081;-79
2021/10/30 11:00:14;;;;;;;45.13;23.57;;;;;;;12.36;71.24;101843.11;127344;1101;101497;-81
2021/10/30 11:02:53;;;;;;;48.60;24.53;;;;;;;12.47;71.37;101836.64;127188;1101;101920;-76
2021/10/30 11:05:32;;;;;;;46.77;24.93;;;;;;;12.56;70.45;101831.83;127315;1101;101622;-77
2021/10/30 11:08:16;;;;;;;45.17;24.50;;;;;;;12.54;71.03;101832.58;127288;1102;101491;-78
2021/10/30 11:10:44;;;;;;;45.25;24.47;;;;;;;12.66;71.10;101829.64;126482;1102;101597;-78
2021/10/30 11:13:17;;;;;;;42.73;23.17;;;;;;;12.70;70.68;101826.31;127189;1101;102732;-79